sensor_id;sensor_type;location;lat;lon;timestamp;P1;durP1;ratioP1;P2;durP2;ratioP2
70866;SDS011;58487;53.474;49.470;2023-12-20T00:00:08;3.58;;;1.17;;
70866;SDS011;58487;53.474;49.470;2023-12-20T00:02:34;3.55;;;1.38;;
70866;SDS011;58487;53.474;49.470;2023-12-20T00:05:00;3.50;;;1.30;;
70866;SDS011;58487;53.474;49.470;2023-12-20T00:07:26;3.53;;;1.20;;
70866;SDS011;58487;53.474;49.470;2023-12-20T00:09:52;7.07;;;1.20;;
70866;SDS011;58487;53.474;49.470;2023-12-20T00:12:18;4.57;;;1.20;;
70866;SDS011;58487;53.474;49.470;2023-12-20T00:14:44;3.97;;;1.33;;
70866;SDS011;58487;53.474;49.470;2023-12-20T00:17:10;3.40;;;1.10;;
70866;SDS011;58487;53.474;49.470;2023-12-20T00:19:36;2.93;;;0.90;;
70866;SDS011;58487;53.474;49.470;2023-12-20T00:22:02;3.60;;;1.00;;
70866;SDS011;58487;53.474;49.470;2023-12-20T00:24:28;2.50;;;0.90;;
70866;SDS011;58487;53.474;49.470;2023-12-20T00:26:54;4.75;;;1.20;;
70866;SDS011;58487;53.474;49.470;2023-12-20T00:29:20;2.95;;;1.00;;
70866;SDS011;58487;53.474;49.470;2023-12-20T00:31:46;2.88;;;0.90;;
70866;SDS011;58487;53.474;49.470;2023-12-20T00:34:12;3.00;;;1.10;;
70866;SDS011;58487;53.474;49.470;2023-12-20T00:36:39;2.88;;;0.90;;
70866;SDS011;58487;53.474;49.470;2023-12-20T00:39:05;3.38;;;1.10;;
70866;SDS011;58487;53.474;49.470;2023-12-20T00:41:33;3.60;;;1.30;;
70866;SDS011;58487;53.474;49.470;2023-12-20T00:44:00;3.10;;;1.00;;
70866;SDS011;58487;53.474;49.470;2023-12-20T00:46:26;3.28;;;0.90;;
70866;SDS011;58487;53.474;49.470;2023-12-20T00:48:52;3.78;;;1.20;;
70866;SDS011;58487;53.474;49.470;2023-12-20T00:51:18;3.92;;;1.20;;
70866;SDS011;58487;53.474;49.470;2023-12-20T00:53:44;4.45;;;1.33;;
70866;SDS011;58487;53.474;49.470;2023-12-20T00:56:11;3.40;;;1.20;;
70866;SDS011;58487;53.474;49.470;2023-12-20T00:58:37;3.40;;;1.10;;
70866;SDS011;58487;53.474;49.470;2023-12-20T01:01:03;4.15;;;1.10;;
70866;SDS011;58487;53.474;49.470;2023-12-20T01:03:29;3.35;;;1.20;;
70866;SDS011;58487;53.474;49.470;2023-12-20T01:05:55;3.83;;;1.30;;
70866;SDS011;58487;53.474;49.470;2023-12-20T01:08:22;3.83;;;1.13;;
70866;SDS011;58487;53.474;49.470;2023-12-20T01:10:48;2.90;;;1.00;;
70866;SDS011;58487;53.474;49.470;2023-12-20T01:13:14;3.35;;;1.00;;
70866;SDS011;58487;53.474;49.470;2023-12-20T01:15:40;4.13;;;1.10;;
70866;SDS011;58487;53.474;49.470;2023-12-20T01:18:07;3.13;;;0.70;;
70866;SDS011;58487;53.474;49.470;2023-12-20T01:20:33;2.73;;;0.73;;
70866;SDS011;58487;53.474;49.470;2023-12-20T01:22:59;3.10;;;1.02;;
70866;SDS011;58487;53.474;49.470;2023-12-20T01:25:24;2.67;;;0.88;;
70866;SDS011;58487;53.474;49.470;2023-12-20T01:27:50;3.00;;;0.90;;
70866;SDS011;58487;53.474;49.470;2023-12-20T01:30:16;2.30;;;0.68;;
70866;SDS011;58487;53.474;49.470;2023-12-20T01:32:43;2.80;;;0.90;;
70866;SDS011;58487;53.474;49.470;2023-12-20T01:35:09;3.47;;;0.80;;
70866;SDS011;58487;53.474;49.470;2023-12-20T01:37:35;3.63;;;0.90;;
70866;SDS011;58487;53.474;49.470;2023-12-20T01:40:01;3.22;;;0.77;;
70866;SDS011;58487;53.474;49.470;2023-12-20T01:42:27;3.05;;;1.00;;
70866;SDS011;58487;53.474;49.470;2023-12-20T01:44:54;2.40;;;0.70;;
70866;SDS011;58487;53.474;49.470;2023-12-20T01:47:20;4.88;;;0.70;;
70866;SDS011;58487;53.474;49.470;2023-12-20T01:49:47;3.97;;;1.08;;
70866;SDS011;58487;53.474;49.470;2023-12-20T01:52:14;2.33;;;0.70;;
70866;SDS011;58487;53.474;49.470;2023-12-20T01:54:41;2.10;;;0.60;;
70866;SDS011;58487;53.474;49.470;2023-12-20T01:57:08;4.13;;;0.80;;
70866;SDS011;58487;53.474;49.470;2023-12-20T01:59:34;2.85;;;0.90;;
70866;SDS011;58487;53.474;49.470;2023-12-20T02:02:01;3.20;;;0.90;;
70866;SDS011;58487;53.474;49.470;2023-12-20T02:04:32;3.28;;;0.90;;
70866;SDS011;58487;53.474;49.470;2023-12-20T02:06:58;2.60;;;0.70;;
70866;SDS011;58487;53.474;49.470;2023-12-20T02:09:25;2.22;;;0.70;;
70866;SDS011;58487;53.474;49.470;2023-12-20T02:11:53;2.45;;;0.80;;
70866;SDS011;58487;53.474;49.470;2023-12-20T02:14:19;2.75;;;0.75;;
70866;SDS011;58487;53.474;49.470;2023-12-20T02:16:46;2.25;;;0.70;;
70866;SDS011;58487;53.474;49.470;2023-12-20T02:19:15;1.90;;;0.57;;
70866;SDS011;58487;53.474;49.470;2023-12-20T02:21:43;3.00;;;0.80;;
70866;SDS011;58487;53.474;49.470;2023-12-20T02:24:09;2.45;;;0.70;;
70866;SDS011;58487;53.474;49.470;2023-12-20T02:26:35;3.10;;;0.70;;
70866;SDS011;58487;53.474;49.470;2023-12-20T02:29:01;2.28;;;0.70;;
70866;SDS011;58487;53.474;49.470;2023-12-20T02:31:28;1.60;;;0.50;;
70866;SDS011;58487;53.474;49.470;2023-12-20T02:33:54;2.55;;;0.70;;
70866;SDS011;58487;53.474;49.470;2023-12-20T02:36:20;3.72;;;0.80;;
70866;SDS011;58487;53.474;49.470;2023-12-20T02:38:46;2.38;;;0.70;;
70866;SDS011;58487;53.474;49.470;2023-12-20T02:41:12;2.40;;;0.70;;
70866;SDS011;58487;53.474;49.470;2023-12-20T02:43:39;2.57;;;0.57;;
70866;SDS011;58487;53.474;49.470;2023-12-20T02:46:05;2.17;;;0.60;;
70866;SDS011;58487;53.474;49.470;2023-12-20T02:48:31;2.15;;;0.60;;
70866;SDS011;58487;53.474;49.470;2023-12-20T02:50:57;2.17;;;0.60;;
70866;SDS011;58487;53.474;49.470;2023-12-20T02:53:23;2.20;;;0.65;;
70866;SDS011;58487;53.474;49.470;2023-12-20T02:55:49;2.60;;;0.60;;
70866;SDS011;58487;53.474;49.470;2023-12-20T02:58:15;2.33;;;0.60;;
70866;SDS011;58487;53.474;49.470;2023-12-20T03:00:43;3.10;;;0.70;;
70866;SDS011;58487;53.474;49.470;2023-12-20T03:03:09;2.30;;;0.60;;
70866;SDS011;58487;53.474;49.470;2023-12-20T03:05:35;2.40;;;0.70;;
70866;SDS011;58487;53.474;49.470;2023-12-20T03:08:01;1.60;;;0.50;;
70866;SDS011;58487;53.474;49.470;2023-12-20T03:10:27;1.88;;;0.60;;
70866;SDS011;58487;53.474;49.470;2023-12-20T03:12:53;1.90;;;0.70;;
70866;SDS011;58487;53.474;49.470;2023-12-20T03:15:19;2.45;;;0.70;;
70866;SDS011;58487;53.474;49.470;2023-12-20T03:17:45;1.90;;;0.60;;
70866;SDS011;58487;53.474;49.470;2023-12-20T03:20:11;1.73;;;0.50;;
70866;SDS011;58487;53.474;49.470;2023-12-20T03:22:38;2.67;;;0.60;;
70866;SDS011;58487;53.474;49.470;2023-12-20T03:25:04;2.00;;;0.60;;
70866;SDS011;58487;53.474;49.470;2023-12-20T03:27:30;2.35;;;0.70;;
70866;SDS011;58487;53.474;49.470;2023-12-20T03:29:56;2.17;;;0.70;;
70866;SDS011;58487;53.474;49.470;2023-12-20T03:32:22;2.07;;;0.60;;
70866;SDS011;58487;53.474;49.470;2023-12-20T03:34:48;2.67;;;0.80;;
70866;SDS011;58487;53.474;49.470;2023-12-20T03:37:14;3.40;;;0.90;;
70866;SDS011;58487;53.474;49.470;2023-12-20T03:39:40;2.90;;;0.90;;
70866;SDS011;58487;53.474;49.470;2023-12-20T03:42:06;2.70;;;0.80;;
70866;SDS011;58487;53.474;49.470;2023-12-20T03:44:32;2.83;;;1.00;;
70866;SDS011;58487;53.474;49.470;2023-12-20T03:46:58;2.70;;;0.80;;
70866;SDS011;58487;53.474;49.470;2023-12-20T03:49:24;2.47;;;0.80;;
70866;SDS011;58487;53.474;49.470;2023-12-20T03:51:50;2.63;;;0.82;;
70866;SDS011;58487;53.474;49.470;2023-12-20T03:54:16;2.90;;;0.90;;
70866;SDS011;58487;53.474;49.470;2023-12-20T03:56:42;2.60;;;0.80;;
70866;SDS011;58487;53.474;49.470;2023-12-20T03:59:08;3.03;;;1.00;;
70866;SDS011;58487;53.474;49.470;2023-12-20T04:01:34;2.55;;;0.80;;
70866;SDS011;58487;53.474;49.470;2023-12-20T04:04:01;2.60;;;0.75;;
70866;SDS011;58487;53.474;49.470;2023-12-20T04:06:27;2.47;;;0.70;;
70866;SDS011;58487;53.474;49.470;2023-12-20T04:08:53;2.67;;;0.80;;
70866;SDS011;58487;53.474;49.470;2023-12-20T04:11:19;2.55;;;0.90;;
70866;SDS011;58487;53.474;49.470;2023-12-20T04:13:45;2.42;;;0.75;;
70866;SDS011;58487;53.474;49.470;2023-12-20T04:16:12;2.22;;;0.70;;
70866;SDS011;58487;53.474;49.470;2023-12-20T04:18:39;2.58;;;0.80;;
70866;SDS011;58487;53.474;49.470;2023-12-20T04:21:05;3.13;;;0.90;;
70866;SDS011;58487;53.474;49.470;2023-12-20T04:23:31;2.50;;;0.70;;
70866;SDS011;58487;53.474;49.470;2023-12-20T04:25:57;2.67;;;0.82;;
70866;SDS011;58487;53.474;49.470;2023-12-20T04:28:23;2.88;;;0.80;;
70866;SDS011;58487;53.474;49.470;2023-12-20T04:30:49;2.72;;;0.90;;
70866;SDS011;58487;53.474;49.470;2023-12-20T04:33:15;2.67;;;0.90;;
70866;SDS011;58487;53.474;49.470;2023-12-20T04:35:41;2.17;;;0.70;;
70866;SDS011;58487;53.474;49.470;2023-12-20T04:38:08;2.78;;;0.80;;
70866;SDS011;58487;53.474;49.470;2023-12-20T04:40:34;2.30;;;0.70;;
70866;SDS011;58487;53.474;49.470;2023-12-20T04:43:00;2.87;;;0.90;;
70866;SDS011;58487;53.474;49.470;2023-12-20T04:45:27;2.33;;;0.70;;
70866;SDS011;58487;53.474;49.470;2023-12-20T04:47:53;2.78;;;0.88;;
70866;SDS011;58487;53.474;49.470;2023-12-20T04:50:19;2.65;;;0.80;;
70866;SDS011;58487;53.474;49.470;2023-12-20T04:52:45;2.67;;;0.82;;
70866;SDS011;58487;53.474;49.470;2023-12-20T04:55:11;2.28;;;0.70;;
70866;SDS011;58487;53.474;49.470;2023-12-20T04:57:37;1.93;;;0.60;;
70866;SDS011;58487;53.474;49.470;2023-12-20T05:00:03;3.20;;;0.80;;
70866;SDS011;58487;53.474;49.470;2023-12-20T05:02:30;2.20;;;0.60;;
70866;SDS011;58487;53.474;49.470;2023-12-20T05:04:56;2.63;;;0.80;;
70866;SDS011;58487;53.474;49.470;2023-12-20T05:07:22;2.63;;;0.90;;
70866;SDS011;58487;53.474;49.470;2023-12-20T05:09:48;2.10;;;0.70;;
70866;SDS011;58487;53.474;49.470;2023-12-20T05:12:14;2.00;;;0.60;;
70866;SDS011;58487;53.474;49.470;2023-12-20T05:14:40;2.25;;;0.60;;
70866;SDS011;58487;53.474;49.470;2023-12-20T05:17:06;2.10;;;0.68;;
70866;SDS011;58487;53.474;49.470;2023-12-20T05:19:32;2.17;;;0.63;;
70866;SDS011;58487;53.474;49.470;2023-12-20T05:22:03;1.90;;;0.60;;
70866;SDS011;58487;53.474;49.470;2023-12-20T05:24:29;1.98;;;0.70;;
70866;SDS011;58487;53.474;49.470;2023-12-20T05:26:55;1.98;;;0.65;;
70866;SDS011;58487;53.474;49.470;2023-12-20T05:29:21;1.73;;;0.60;;
70866;SDS011;58487;53.474;49.470;2023-12-20T05:31:47;1.90;;;0.60;;
70866;SDS011;58487;53.474;49.470;2023-12-20T05:34:13;1.60;;;0.60;;
70866;SDS011;58487;53.474;49.470;2023-12-20T05:36:39;1.83;;;0.60;;
70866;SDS011;58487;53.474;49.470;2023-12-20T05:39:06;1.50;;;0.50;;
70866;SDS011;58487;53.474;49.470;2023-12-20T05:41:33;1.83;;;0.60;;
70866;SDS011;58487;53.474;49.470;2023-12-20T05:43:59;2.30;;;0.68;;
70866;SDS011;58487;53.474;49.470;2023-12-20T05:46:25;2.53;;;0.70;;
70866;SDS011;58487;53.474;49.470;2023-12-20T05:48:53;1.90;;;0.60;;
70866;SDS011;58487;53.474;49.470;2023-12-20T05:51:19;1.73;;;0.60;;
70866;SDS011;58487;53.474;49.470;2023-12-20T05:53:45;2.47;;;0.70;;
70866;SDS011;58487;53.474;49.470;2023-12-20T05:56:11;2.30;;;0.80;;
70866;SDS011;58487;53.474;49.470;2023-12-20T05:58:38;2.37;;;0.70;;
70866;SDS011;58487;53.474;49.470;2023-12-20T06:01:04;2.03;;;0.60;;
70866;SDS011;58487;53.474;49.470;2023-12-20T06:03:31;1.90;;;0.60;;
70866;SDS011;58487;53.474;49.470;2023-12-20T06:05:57;2.30;;;0.70;;
70866;SDS011;58487;53.474;49.470;2023-12-20T06:08:23;2.35;;;0.68;;
70866;SDS011;58487;53.474;49.470;2023-12-20T06:10:49;2.53;;;0.77;;
70866;SDS011;58487;53.474;49.470;2023-12-20T06:13:15;1.92;;;0.60;;
70866;SDS011;58487;53.474;49.470;2023-12-20T06:15:41;2.03;;;0.63;;
70866;SDS011;58487;53.474;49.470;2023-12-20T06:18:08;1.80;;;0.60;;
70866;SDS011;58487;53.474;49.470;2023-12-20T06:20:34;2.30;;;0.70;;
70866;SDS011;58487;53.474;49.470;2023-12-20T06:23:00;2.00;;;0.70;;
70866;SDS011;58487;53.474;49.470;2023-12-20T06:25:26;1.85;;;0.60;;
70866;SDS011;58487;53.474;49.470;2023-12-20T06:27:52;1.73;;;0.55;;
70866;SDS011;58487;53.474;49.470;2023-12-20T06:30:18;2.10;;;0.60;;
70866;SDS011;58487;53.474;49.470;2023-12-20T06:32:44;2.00;;;0.70;;
70866;SDS011;58487;53.474;49.470;2023-12-20T06:35:12;2.07;;;0.70;;
70866;SDS011;58487;53.474;49.470;2023-12-20T06:37:38;2.10;;;0.60;;
70866;SDS011;58487;53.474;49.470;2023-12-20T06:40:09;2.00;;;0.60;;
70866;SDS011;58487;53.474;49.470;2023-12-20T06:42:35;2.78;;;0.73;;
70866;SDS011;58487;53.474;49.470;2023-12-20T06:45:02;2.15;;;0.60;;
70866;SDS011;58487;53.474;49.470;2023-12-20T06:47:28;2.57;;;0.80;;
70866;SDS011;58487;53.474;49.470;2023-12-20T06:49:54;3.03;;;0.90;;
70866;SDS011;58487;53.474;49.470;2023-12-20T06:52:20;2.10;;;0.60;;
70866;SDS011;58487;53.474;49.470;2023-12-20T06:54:46;2.35;;;0.73;;
70866;SDS011;58487;53.474;49.470;2023-12-20T06:57:12;2.42;;;0.70;;
70866;SDS011;58487;53.474;49.470;2023-12-20T06:59:41;2.10;;;0.60;;
70866;SDS011;58487;53.474;49.470;2023-12-20T07:02:08;2.05;;;0.63;;
70866;SDS011;58487;53.474;49.470;2023-12-20T07:04:35;2.30;;;0.70;;
70866;SDS011;58487;53.474;49.470;2023-12-20T07:07:06;2.70;;;0.70;;
70866;SDS011;58487;53.474;49.470;2023-12-20T07:09:32;2.13;;;0.70;;
70866;SDS011;58487;53.474;49.470;2023-12-20T07:11:59;2.77;;;0.80;;
70866;SDS011;58487;53.474;49.470;2023-12-20T07:14:25;2.22;;;0.70;;
70866;SDS011;58487;53.474;49.470;2023-12-20T07:16:51;2.30;;;0.73;;
70866;SDS011;58487;53.474;49.470;2023-12-20T07:19:17;2.33;;;0.70;;
70866;SDS011;58487;53.474;49.470;2023-12-20T07:21:43;2.35;;;0.73;;
70866;SDS011;58487;53.474;49.470;2023-12-20T07:24:09;2.67;;;0.80;;
70866;SDS011;58487;53.474;49.470;2023-12-20T07:26:35;2.95;;;0.80;;
70866;SDS011;58487;53.474;49.470;2023-12-20T07:29:03;2.85;;;0.77;;
70866;SDS011;58487;53.474;49.470;2023-12-20T07:31:29;1.65;;;0.50;;
70866;SDS011;58487;53.474;49.470;2023-12-20T07:33:56;2.05;;;0.70;;
70866;SDS011;58487;53.474;49.470;2023-12-20T07:36:22;2.77;;;0.77;;
70866;SDS011;58487;53.474;49.470;2023-12-20T07:38:48;2.88;;;0.70;;
70866;SDS011;58487;53.474;49.470;2023-12-20T07:41:14;2.28;;;0.77;;
70866;SDS011;58487;53.474;49.470;2023-12-20T07:43:41;2.00;;;0.70;;
70866;SDS011;58487;53.474;49.470;2023-12-20T07:46:08;2.30;;;0.70;;
70866;SDS011;58487;53.474;49.470;2023-12-20T07:48:34;2.00;;;0.67;;
70866;SDS011;58487;53.474;49.470;2023-12-20T07:51:01;2.20;;;0.70;;
70866;SDS011;58487;53.474;49.470;2023-12-20T07:53:28;2.20;;;0.70;;
70866;SDS011;58487;53.474;49.470;2023-12-20T07:55:54;2.35;;;0.70;;
70866;SDS011;58487;53.474;49.470;2023-12-20T07:58:21;2.30;;;0.80;;
70866;SDS011;58487;53.474;49.470;2023-12-20T08:00:47;2.43;;;0.73;;
70866;SDS011;58487;53.474;49.470;2023-12-20T08:03:13;2.17;;;0.70;;
70866;SDS011;58487;53.474;49.470;2023-12-20T08:05:40;1.90;;;0.60;;
70866;SDS011;58487;53.474;49.470;2023-12-20T08:08:06;1.98;;;0.68;;
70866;SDS011;58487;53.474;49.470;2023-12-20T08:10:32;2.67;;;0.70;;
70866;SDS011;58487;53.474;49.470;2023-12-20T08:12:58;2.20;;;0.70;;
70866;SDS011;58487;53.474;49.470;2023-12-20T08:15:24;2.28;;;0.73;;
70866;SDS011;58487;53.474;49.470;2023-12-20T08:17:50;2.05;;;0.70;;
70866;SDS011;58487;53.474;49.470;2023-12-20T08:20:17;2.15;;;0.70;;
70866;SDS011;58487;53.474;49.470;2023-12-20T08:22:43;2.22;;;0.68;;
70866;SDS011;58487;53.474;49.470;2023-12-20T08:25:09;2.20;;;0.70;;
70866;SDS011;58487;53.474;49.470;2023-12-20T08:27:39;2.10;;;0.70;;
70866;SDS011;58487;53.474;49.470;2023-12-20T08:30:06;1.95;;;0.60;;
70866;SDS011;58487;53.474;49.470;2023-12-20T08:32:34;2.28;;;0.60;;
70866;SDS011;58487;53.474;49.470;2023-12-20T08:35:00;2.03;;;0.70;;
70866;SDS011;58487;53.474;49.470;2023-12-20T08:37:26;1.90;;;0.60;;
70866;SDS011;58487;53.474;49.470;2023-12-20T08:39:52;2.30;;;0.80;;
70866;SDS011;58487;53.474;49.470;2023-12-20T08:42:18;1.50;;;0.50;;
70866;SDS011;58487;53.474;49.470;2023-12-20T08:44:45;3.08;;;0.75;;
70866;SDS011;58487;53.474;49.470;2023-12-20T08:47:11;2.00;;;0.70;;
70866;SDS011;58487;53.474;49.470;2023-12-20T08:49:39;2.07;;;0.70;;
70866;SDS011;58487;53.474;49.470;2023-12-20T08:52:05;2.30;;;0.70;;
70866;SDS011;58487;53.474;49.470;2023-12-20T08:54:31;1.63;;;0.55;;
70866;SDS011;58487;53.474;49.470;2023-12-20T08:56:57;3.05;;;0.70;;
70866;SDS011;58487;53.474;49.470;2023-12-20T08:59:23;2.78;;;0.80;;
70866;SDS011;58487;53.474;49.470;2023-12-20T09:01:49;2.43;;;0.80;;
70866;SDS011;58487;53.474;49.470;2023-12-20T09:04:20;1.98;;;0.70;;
70866;SDS011;58487;53.474;49.470;2023-12-20T09:06:46;2.05;;;0.70;;
70866;SDS011;58487;53.474;49.470;2023-12-20T09:09:12;2.53;;;0.90;;
70866;SDS011;58487;53.474;49.470;2023-12-20T09:11:40;2.58;;;0.77;;
70866;SDS011;58487;53.474;49.470;2023-12-20T09:14:07;2.30;;;0.77;;
70866;SDS011;58487;53.474;49.470;2023-12-20T09:16:34;2.55;;;0.80;;
70866;SDS011;58487;53.474;49.470;2023-12-20T09:19:00;2.45;;;0.80;;
70866;SDS011;58487;53.474;49.470;2023-12-20T09:21:26;2.50;;;0.80;;
70866;SDS011;58487;53.474;49.470;2023-12-20T09:23:52;2.30;;;0.80;;
70866;SDS011;58487;53.474;49.470;2023-12-20T09:26:18;2.40;;;0.80;;
70866;SDS011;58487;53.474;49.470;2023-12-20T09:28:44;2.28;;;0.70;;
70866;SDS011;58487;53.474;49.470;2023-12-20T09:31:10;2.35;;;0.75;;
70866;SDS011;58487;53.474;49.470;2023-12-20T09:33:36;2.60;;;0.80;;
70866;SDS011;58487;53.474;49.470;2023-12-20T09:36:02;2.15;;;0.70;;
70866;SDS011;58487;53.474;49.470;2023-12-20T09:38:29;1.90;;;0.60;;
70866;SDS011;58487;53.474;49.470;2023-12-20T09:40:55;2.30;;;0.77;;
70866;SDS011;58487;53.474;49.470;2023-12-20T09:43:22;1.85;;;0.60;;
70866;SDS011;58487;53.474;49.470;2023-12-20T09:45:52;3.22;;;0.80;;
70866;SDS011;58487;53.474;49.470;2023-12-20T09:48:19;2.60;;;0.88;;
70866;SDS011;58487;53.474;49.470;2023-12-20T09:50:46;2.70;;;0.80;;
70866;SDS011;58487;53.474;49.470;2023-12-20T09:53:15;2.10;;;0.70;;
70866;SDS011;58487;53.474;49.470;2023-12-20T09:55:42;2.30;;;0.80;;
70866;SDS011;58487;53.474;49.470;2023-12-20T09:58:08;2.05;;;0.70;;
70866;SDS011;58487;53.474;49.470;2023-12-20T10:00:34;2.55;;;0.82;;
70866;SDS011;58487;53.474;49.470;2023-12-20T10:03:01;2.40;;;0.80;;
70866;SDS011;58487;53.474;49.470;2023-12-20T10:05:30;2.55;;;0.80;;
70866;SDS011;58487;53.474;49.470;2023-12-20T10:07:58;2.20;;;0.70;;
70866;SDS011;58487;53.474;49.470;2023-12-20T10:10:25;2.40;;;0.88;;
70866;SDS011;58487;53.474;49.470;2023-12-20T10:13:01;3.15;;;0.80;;
70866;SDS011;58487;53.474;49.470;2023-12-20T10:15:29;3.03;;;0.90;;
70866;SDS011;58487;53.474;49.470;2023-12-20T10:17:57;2.90;;;1.00;;
70866;SDS011;58487;53.474;49.470;2023-12-20T10:20:24;2.70;;;0.85;;
70866;SDS011;58487;53.474;49.470;2023-12-20T10:22:51;2.00;;;0.65;;
70866;SDS011;58487;53.474;49.470;2023-12-20T10:25:19;3.08;;;1.00;;
70866;SDS011;58487;53.474;49.470;2023-12-20T10:27:46;2.83;;;1.00;;
70866;SDS011;58487;53.474;49.470;2023-12-20T10:30:13;2.50;;;0.80;;
70866;SDS011;58487;53.474;49.470;2023-12-20T10:32:39;3.28;;;1.00;;
70866;SDS011;58487;53.474;49.470;2023-12-20T10:35:06;2.20;;;0.70;;
70866;SDS011;58487;53.474;49.470;2023-12-20T10:37:36;2.17;;;0.75;;
70866;SDS011;58487;53.474;49.470;2023-12-20T10:40:03;2.20;;;0.80;;
70866;SDS011;58487;53.474;49.470;2023-12-20T10:42:31;2.45;;;0.88;;
70866;SDS011;58487;53.474;49.470;2023-12-20T10:45:01;2.20;;;0.80;;
70866;SDS011;58487;53.474;49.470;2023-12-20T10:47:27;2.60;;;0.90;;
70866;SDS011;58487;53.474;49.470;2023-12-20T10:49:55;2.38;;;0.80;;
70866;SDS011;58487;53.474;49.470;2023-12-20T10:52:25;2.50;;;0.80;;
70866;SDS011;58487;53.474;49.470;2023-12-20T10:54:53;3.55;;;1.10;;
70866;SDS011;58487;53.474;49.470;2023-12-20T10:57:19;2.70;;;0.90;;
70866;SDS011;58487;53.474;49.470;2023-12-20T10:59:47;2.78;;;0.85;;
70866;SDS011;58487;53.474;49.470;2023-12-20T11:02:16;2.90;;;1.02;;
70866;SDS011;58487;53.474;49.470;2023-12-20T11:10:09;3.92;;;1.30;;
70866;SDS011;58487;53.474;49.470;2023-12-20T11:12:47;2.65;;;0.80;;
70866;SDS011;58487;53.474;49.470;2023-12-20T11:15:17;2.63;;;0.82;;
70866;SDS011;58487;53.474;49.470;2023-12-20T11:17:45;2.90;;;0.97;;
70866;SDS011;58487;53.474;49.470;2023-12-20T11:20:14;2.45;;;0.80;;
70866;SDS011;58487;53.474;49.470;2023-12-20T11:22:51;3.78;;;1.02;;
70866;SDS011;58487;53.474;49.470;2023-12-20T11:25:19;2.88;;;1.00;;
70866;SDS011;58487;53.474;49.470;2023-12-20T11:28:06;2.58;;;0.90;;
70866;SDS011;58487;53.474;49.470;2023-12-20T11:33:22;2.65;;;0.90;;
70866;SDS011;58487;53.474;49.470;2023-12-20T11:35:51;2.30;;;0.80;;
70866;SDS011;58487;53.474;49.470;2023-12-20T11:38:20;3.20;;;1.10;;
70866;SDS011;58487;53.474;49.470;2023-12-20T11:40:50;2.70;;;1.00;;
70866;SDS011;58487;53.474;49.470;2023-12-20T11:46:04;2.28;;;0.77;;
70866;SDS011;58487;53.474;49.470;2023-12-20T11:48:35;2.67;;;0.80;;
70866;SDS011;58487;53.474;49.470;2023-12-20T11:51:08;3.40;;;0.95;;
70866;SDS011;58487;53.474;49.470;2023-12-20T11:53:39;2.92;;;1.02;;
70866;SDS011;58487;53.474;49.470;2023-12-20T11:56:08;3.60;;;0.93;;
70866;SDS011;58487;53.474;49.470;2023-12-20T11:58:37;2.60;;;0.85;;
70866;SDS011;58487;53.474;49.470;2023-12-20T12:01:04;4.00;;;0.90;;
70866;SDS011;58487;53.474;49.470;2023-12-20T12:03:33;2.67;;;1.00;;
70866;SDS011;58487;53.474;49.470;2023-12-20T12:06:01;2.67;;;0.90;;
70866;SDS011;58487;53.474;49.470;2023-12-20T12:08:30;2.70;;;1.00;;
70866;SDS011;58487;53.474;49.470;2023-12-20T12:10:56;2.65;;;0.82;;
70866;SDS011;58487;53.474;49.470;2023-12-20T12:13:22;2.42;;;0.90;;
70866;SDS011;58487;53.474;49.470;2023-12-20T12:15:48;3.53;;;0.90;;
70866;SDS011;58487;53.474;49.470;2023-12-20T12:18:16;2.92;;;1.02;;
70866;SDS011;58487;53.474;49.470;2023-12-20T12:20:42;3.00;;;0.90;;
70866;SDS011;58487;53.474;49.470;2023-12-20T12:23:09;2.70;;;0.90;;
70866;SDS011;58487;53.474;49.470;2023-12-20T12:25:35;3.17;;;1.00;;
70866;SDS011;58487;53.474;49.470;2023-12-20T12:28:05;4.65;;;1.10;;
70866;SDS011;58487;53.474;49.470;2023-12-20T12:30:31;3.00;;;1.10;;
70866;SDS011;58487;53.474;49.470;2023-12-20T12:32:57;3.07;;;1.00;;
70866;SDS011;58487;53.474;49.470;2023-12-20T12:35:23;3.13;;;1.17;;
70866;SDS011;58487;53.474;49.470;2023-12-20T12:37:49;3.05;;;1.10;;
70866;SDS011;58487;53.474;49.470;2023-12-20T12:40:16;3.10;;;1.00;;
70866;SDS011;58487;53.474;49.470;2023-12-20T12:42:43;2.75;;;0.90;;
70866;SDS011;58487;53.474;49.470;2023-12-20T12:45:11;2.70;;;0.97;;
70866;SDS011;58487;53.474;49.470;2023-12-20T12:47:37;3.60;;;1.10;;
70866;SDS011;58487;53.474;49.470;2023-12-20T12:50:03;3.05;;;0.95;;
70866;SDS011;58487;53.474;49.470;2023-12-20T12:52:30;2.80;;;1.00;;
70866;SDS011;58487;53.474;49.470;2023-12-20T12:54:56;3.75;;;1.00;;
70866;SDS011;58487;53.474;49.470;2023-12-20T12:57:22;4.20;;;1.00;;
70866;SDS011;58487;53.474;49.470;2023-12-20T12:59:49;2.97;;;1.00;;
70866;SDS011;58487;53.474;49.470;2023-12-20T13:02:16;2.47;;;0.90;;
70866;SDS011;58487;53.474;49.470;2023-12-20T13:04:42;3.42;;;1.30;;
70866;SDS011;58487;53.474;49.470;2023-12-20T13:07:09;2.90;;;0.90;;
70866;SDS011;58487;53.474;49.470;2023-12-20T13:09:38;3.50;;;1.23;;
70866;SDS011;58487;53.474;49.470;2023-12-20T13:12:05;3.30;;;1.10;;
70866;SDS011;58487;53.474;49.470;2023-12-20T13:14:33;2.92;;;1.00;;
70866;SDS011;58487;53.474;49.470;2023-12-20T13:17:00;3.40;;;1.10;;
70866;SDS011;58487;53.474;49.470;2023-12-20T13:19:27;3.50;;;1.27;;
70866;SDS011;58487;53.474;49.470;2023-12-20T13:21:53;3.70;;;1.37;;
70866;SDS011;58487;53.474;49.470;2023-12-20T13:24:19;2.67;;;0.98;;
70866;SDS011;58487;53.474;49.470;2023-12-20T13:26:45;3.42;;;1.17;;
70866;SDS011;58487;53.474;49.470;2023-12-20T13:29:11;3.40;;;1.30;;
70866;SDS011;58487;53.474;49.470;2023-12-20T13:31:37;3.30;;;1.30;;
70866;SDS011;58487;53.474;49.470;2023-12-20T13:34:05;3.47;;;1.37;;
70866;SDS011;58487;53.474;49.470;2023-12-20T13:36:32;3.47;;;1.40;;
70866;SDS011;58487;53.474;49.470;2023-12-20T13:38:58;3.42;;;1.30;;
70866;SDS011;58487;53.474;49.470;2023-12-20T13:41:24;3.35;;;1.30;;
70866;SDS011;58487;53.474;49.470;2023-12-20T13:43:50;2.90;;;1.13;;
70866;SDS011;58487;53.474;49.470;2023-12-20T13:46:16;3.53;;;1.30;;
70866;SDS011;58487;53.474;49.470;2023-12-20T13:48:42;3.20;;;1.13;;
70866;SDS011;58487;53.474;49.470;2023-12-20T13:51:08;3.78;;;1.35;;
70866;SDS011;58487;53.474;49.470;2023-12-20T13:53:36;3.60;;;1.30;;
70866;SDS011;58487;53.474;49.470;2023-12-20T13:56:04;3.97;;;1.60;;
70866;SDS011;58487;53.474;49.470;2023-12-20T13:58:30;3.67;;;1.30;;
70866;SDS011;58487;53.474;49.470;2023-12-20T14:00:56;3.67;;;1.50;;
70866;SDS011;58487;53.474;49.470;2023-12-20T14:03:22;5.18;;;1.40;;
70866;SDS011;58487;53.474;49.470;2023-12-20T14:05:48;4.28;;;1.70;;
70866;SDS011;58487;53.474;49.470;2023-12-20T14:08:14;3.13;;;1.23;;
70866;SDS011;58487;53.474;49.470;2023-12-20T14:10:40;3.93;;;1.30;;
70866;SDS011;58487;53.474;49.470;2023-12-20T14:13:06;4.35;;;1.60;;
70866;SDS011;58487;53.474;49.470;2023-12-20T14:15:33;3.60;;;1.40;;
70866;SDS011;58487;53.474;49.470;2023-12-20T14:18:05;4.47;;;1.98;;
70866;SDS011;58487;53.474;49.470;2023-12-20T14:20:33;3.90;;;1.55;;
70866;SDS011;58487;53.474;49.470;2023-12-20T14:23:04;4.67;;;1.80;;
70866;SDS011;58487;53.474;49.470;2023-12-20T14:25:30;4.30;;;1.73;;
70866;SDS011;58487;53.474;49.470;2023-12-20T14:27:57;3.90;;;1.60;;
70866;SDS011;58487;53.474;49.470;2023-12-20T14:30:23;4.97;;;1.77;;
70866;SDS011;58487;53.474;49.470;2023-12-20T14:32:49;4.28;;;1.92;;
70866;SDS011;58487;53.474;49.470;2023-12-20T14:35:15;4.30;;;1.73;;
70866;SDS011;58487;53.474;49.470;2023-12-20T14:37:41;4.25;;;1.80;;
70866;SDS011;58487;53.474;49.470;2023-12-20T14:40:08;5.43;;;2.40;;